sensor_id;sensor_type;location;lat;lon;timestamp;pressure;altitude;pressure_sealevel;temperature;humidity
44751;BME280;30477;48.224;11.470;2023-04-23T00:01:06;95483.69;;;15.28;52.61
44751;BME280;30477;48.224;11.470;2023-04-23T00:03:33;95476.88;;;15.27;52.56
44751;BME280;30477;48.224;11.470;2023-04-23T00:06:03;95485.16;;;15.16;52.81
44751;BME280;30477;48.224;11.470;2023-04-23T00:08:31;95478.06;;;15.10;53.09
44751;BME280;30477;48.224;11.470;2023-04-23T00:10:57;95477.47;;;15.08;53.07
44751;BME280;30477;48.224;11.470;2023-04-23T00:13:22;95472.78;;;15.03;52.83
44751;BME280;30477;48.224;11.470;2023-04-23T00:15:48;95476.22;;;15.04;53.54
44751;BME280;30477;48.224;11.470;2023-04-23T00:18:13;95468.56;;;15.02;53.56
44751;BME280;30477;48.224;11.470;2023-04-23T00:20:41;95469.84;;;14.91;53.71
44751;BME280;30477;48.224;11.470;2023-04-23T00:23:06;95464.00;;;14.89;54.02
44751;BME280;30477;48.224;11.470;2023-04-23T00:25:32;95468.50;;;14.95;54.00
44751;BME280;30477;48.224;11.470;2023-04-23T00:27:57;95471.38;;;14.86;53.96
44751;BME280;30477;48.224;11.470;2023-04-23T00:30:23;95457.09;;;14.81;54.33
44751;BME280;30477;48.224;11.470;2023-04-23T00:32:48;95458.91;;;14.81;54.01
44751;BME280;30477;48.224;11.470;2023-04-23T00:35:13;95453.50;;;14.82;54.25
44751;BME280;30477;48.224;11.470;2023-04-23T00:37:39;95455.28;;;14.82;54.45
44751;BME280;30477;48.224;11.470;2023-04-23T00:40:05;95453.06;;;14.79;54.53
44751;BME280;30477;48.224;11.470;2023-04-23T00:42:32;95456.81;;;14.91;54.38
44751;BME280;30477;48.224;11.470;2023-04-23T00:44:58;95453.50;;;14.97;54.41
44751;BME280;30477;48.224;11.470;2023-04-23T00:47:25;95450.97;;;15.04;54.04
44751;BME280;30477;48.224;11.470;2023-04-23T00:49:53;95446.53;;;15.05;53.87
44751;BME280;30477;48.224;11.470;2023-04-23T00:52:19;95446.53;;;15.05;53.87
44751;BME280;30477;48.224;11.470;2023-04-23T00:54:45;95448.53;;;15.02;53.88
44751;BME280;30477;48.224;11.470;2023-04-23T00:57:11;95447.28;;;14.98;54.02
44751;BME280;30477;48.224;11.470;2023-04-23T00:59:36;95444.13;;;15.03;54.11
44751;BME280;30477;48.224;11.470;2023-04-23T01:02:02;95443.31;;;15.02;53.96
44751;BME280;30477;48.224;11.470;2023-04-23T01:04:29;95439.84;;;14.95;54.34
44751;BME280;30477;48.224;11.470;2023-04-23T01:06:55;95431.75;;;14.90;54.12
44751;BME280;30477;48.224;11.470;2023-04-23T01:09:22;95444.34;;;14.87;54.66
44751;BME280;30477;48.224;11.470;2023-04-23T01:11:50;95438.31;;;14.86;54.22
44751;BME280;30477;48.224;11.470;2023-04-23T01:14:16;95437.13;;;14.89;54.34
44751;BME280;30477;48.224;11.470;2023-04-23T01:16:41;95434.81;;;14.94;53.89
44751;BME280;30477;48.224;11.470;2023-04-23T01:19:08;95436.31;;;14.88;54.15
44751;BME280;30477;48.224;11.470;2023-04-23T01:21:34;95427.53;;;14.89;54.26
44751;BME280;30477;48.224;11.470;2023-04-23T01:24:00;95433.00;;;14.94;54.36
44751;BME280;30477;48.224;11.470;2023-04-23T01:26:26;95428.41;;;14.96;54.43
44751;BME280;30477;48.224;11.470;2023-04-23T01:28:52;95434.34;;;14.90;54.32
44751;BME280;30477;48.224;11.470;2023-04-23T01:31:18;95437.13;;;14.89;54.33
44751;BME280;30477;48.224;11.470;2023-04-23T01:33:44;95435.16;;;14.76;54.62
44751;BME280;30477;48.224;11.470;2023-04-23T01:36:09;95439.50;;;14.69;55.47
44751;BME280;30477;48.224;11.470;2023-04-23T01:38:37;95434.84;;;14.64;55.90
44751;BME280;30477;48.224;11.470;2023-04-23T01:41:02;95437.06;;;14.67;56.09
44751;BME280;30477;48.224;11.470;2023-04-23T01:43:28;95445.44;;;14.63;56.16
44751;BME280;30477;48.224;11.470;2023-04-23T01:45:53;95448.25;;;14.53;56.94
44751;BME280;30477;48.224;11.470;2023-04-23T01:48:19;95446.19;;;14.48;57.00
44751;BME280;30477;48.224;11.470;2023-04-23T01:50:44;95436.78;;;14.47;57.52
44751;BME280;30477;48.224;11.470;2023-04-23T01:53:10;95435.97;;;14.47;57.72
44751;BME280;30477;48.224;11.470;2023-04-23T01:55:37;95435.44;;;14.51;58.20
44751;BME280;30477;48.224;11.470;2023-04-23T01:58:03;95433.47;;;14.53;57.64
44751;BME280;30477;48.224;11.470;2023-04-23T02:00:28;95437.53;;;14.56;57.65
44751;BME280;30477;48.224;11.470;2023-04-23T02:02:54;95452.13;;;14.42;57.71
44751;BME280;30477;48.224;11.470;2023-04-23T02:05:20;95446.19;;;14.33;58.13
44751;BME280;30477;48.224;11.470;2023-04-23T02:07:47;95451.22;;;14.35;58.88
44751;BME280;30477;48.224;11.470;2023-04-23T02:10:13;95453.47;;;14.38;59.06
44751;BME280;30477;48.224;11.470;2023-04-23T02:12:39;95454.38;;;14.45;58.89
44751;BME280;30477;48.224;11.470;2023-04-23T02:15:06;95442.25;;;14.52;58.39
44751;BME280;30477;48.224;11.470;2023-04-23T02:17:32;95445.03;;;14.36;58.26
44751;BME280;30477;48.224;11.470;2023-04-23T02:19:57;95447.28;;;14.39;58.45
44751;BME280;30477;48.224;11.470;2023-04-23T02:22:23;95445.41;;;14.33;58.70
44751;BME280;30477;48.224;11.470;2023-04-23T02:24:51;95452.28;;;14.26;58.92
44751;BME280;30477;48.224;11.470;2023-04-23T02:27:17;95455.72;;;14.26;59.32
44751;BME280;30477;48.224;11.470;2023-04-23T02:29:46;95458.13;;;14.28;59.11
44751;BME280;30477;48.224;11.470;2023-04-23T02:32:11;95450.31;;;14.28;60.01
44751;BME280;30477;48.224;11.470;2023-04-23T02:34:37;95451.56;;;14.32;60.02
44751;BME280;30477;48.224;11.470;2023-04-23T02:37:03;95446.09;;;14.27;59.86
44751;BME280;30477;48.224;11.470;2023-04-23T02:39:30;95457.28;;;14.12;60.16
44751;BME280;30477;48.224;11.470;2023-04-23T02:41:55;95456.41;;;14.05;60.88
44751;BME280;30477;48.224;11.470;2023-04-23T02:44:22;95463.19;;;14.06;61.15
44751;BME280;30477;48.224;11.470;2023-04-23T02:46:47;95463.50;;;14.11;61.26
44751;BME280;30477;48.224;11.470;2023-04-23T02:49:13;95461.00;;;14.18;61.19
44751;BME280;30477;48.224;11.470;2023-04-23T02:51:38;95465.00;;;14.06;61.88
44751;BME280;30477;48.224;11.470;2023-04-23T02:54:04;95459.69;;;13.99;62.09
44751;BME280;30477;48.224;11.470;2023-04-23T02:56:30;95463.81;;;13.93;62.66
44751;BME280;30477;48.224;11.470;2023-04-23T02:58:55;95462.63;;;13.96;62.79
44751;BME280;30477;48.224;11.470;2023-04-23T03:01:21;95457.69;;;13.86;63.13
44751;BME280;30477;48.224;11.470;2023-04-23T03:03:46;95465.50;;;13.86;63.35
44751;BME280;30477;48.224;11.470;2023-04-23T03:06:11;95466.19;;;13.80;63.25
44751;BME280;30477;48.224;11.470;2023-04-23T03:08:37;95464.41;;;13.80;63.52
44751;BME280;30477;48.224;11.470;2023-04-23T03:11:02;95467.41;;;13.69;63.51
44751;BME280;30477;48.224;11.470;2023-04-23T03:13:28;95472.38;;;13.56;64.13
44751;BME280;30477;48.224;11.470;2023-04-23T03:15:53;95470.50;;;13.42;64.66
44751;BME280;30477;48.224;11.470;2023-04-23T03:18:19;95478.38;;;13.33;64.84
44751;BME280;30477;48.224;11.470;2023-04-23T03:20:45;95471.19;;;13.35;65.27
44751;BME280;30477;48.224;11.470;2023-04-23T03:23:10;95468.53;;;13.44;65.63
44751;BME280;30477;48.224;11.470;2023-04-23T03:25:36;95470.13;;;13.53;64.94
44751;BME280;30477;48.224;11.470;2023-04-23T03:28:01;95472.94;;;13.43;65.10
44751;BME280;30477;48.224;11.470;2023-04-23T03:30:27;95467.63;;;13.36;65.29
44751;BME280;30477;48.224;11.470;2023-04-23T03:32:54;95464.75;;;13.31;65.59
44751;BME280;30477;48.224;11.470;2023-04-23T03:35:21;95467.63;;;13.28;65.88
44751;BME280;30477;48.224;11.470;2023-04-23T03:37:46;95470.88;;;13.38;66.34
44751;BME280;30477;48.224;11.470;2023-04-23T03:40:12;95476.38;;;13.35;66.04
44751;BME280;30477;48.224;11.470;2023-04-23T03:42:37;95472.84;;;13.28;66.10
44751;BME280;30477;48.224;11.470;2023-04-23T03:45:03;95474.97;;;13.25;66.32
44751;BME280;30477;48.224;11.470;2023-04-23T03:47:28;95489.09;;;13.30;66.50
44751;BME280;30477;48.224;11.470;2023-04-23T03:49:55;95484.44;;;13.17;66.45
44751;BME280;30477;48.224;11.470;2023-04-23T03:52:21;95492.09;;;13.11;67.08
44751;BME280;30477;48.224;11.470;2023-04-23T03:54:46;95493.53;;;13.13;67.20
44751;BME280;30477;48.224;11.470;2023-04-23T03:57:11;95489.81;;;13.08;67.63
44751;BME280;30477;48.224;11.470;2023-04-23T03:59:37;95497.34;;;13.03;68.13
44751;BME280;30477;48.224;11.470;2023-04-23T04:02:03;95501.56;;;12.95;68.47
44751;BME280;30477;48.224;11.470;2023-04-23T04:04:29;95503.88;;;12.90;69.04
44751;BME280;30477;48.224;11.470;2023-04-23T04:06:55;95501.28;;;12.82;69.17
44751;BME280;30477;48.224;11.470;2023-04-23T04:09:21;95510.53;;;12.85;69.49
44751;BME280;30477;48.224;11.470;2023-04-23T04:11:46;95508.94;;;12.84;69.81
44751;BME280;30477;48.224;11.470;2023-04-23T04:14:12;95521.44;;;12.72;70.22
44751;BME280;30477;48.224;11.470;2023-04-23T04:16:38;95516.91;;;12.66;70.47
44751;BME280;30477;48.224;11.470;2023-04-23T04:19:03;95525.69;;;12.65;70.89
44751;BME280;30477;48.224;11.470;2023-04-23T04:21:29;95528.31;;;12.56;70.77
44751;BME280;30477;48.224;11.470;2023-04-23T04:23:54;95523.63;;;12.44;71.05
44751;BME280;30477;48.224;11.470;2023-04-23T04:26:20;95527.03;;;12.52;71.56
44751;BME280;30477;48.224;11.470;2023-04-23T04:28:45;95525.25;;;12.45;71.57
44751;BME280;30477;48.224;11.470;2023-04-23T04:31:12;95529.78;;;12.43;71.38
44751;BME280;30477;48.224;11.470;2023-04-23T04:33:38;95529.91;;;12.57;71.99
44751;BME280;30477;48.224;11.470;2023-04-23T04:36:04;95531.88;;;12.55;71.33
44751;BME280;30477;48.224;11.470;2023-04-23T04:38:29;95527.84;;;12.36;71.81
44751;BME280;30477;48.224;11.470;2023-04-23T04:40:57;95525.44;;;12.35;71.70
44751;BME280;30477;48.224;11.470;2023-04-23T04:43:26;95528.69;;;12.29;71.87
44751;BME280;30477;48.224;11.470;2023-04-23T04:45:51;95533.38;;;12.33;72.33
44751;BME280;30477;48.224;11.470;2023-04-23T04:48:19;95537.09;;;12.39;72.75
44751;BME280;30477;48.224;11.470;2023-04-23T04:50:45;95532.22;;;12.36;72.72
44751;BME280;30477;48.224;11.470;2023-04-23T04:53:11;95530.63;;;12.27;72.94
44751;BME280;30477;48.224;11.470;2023-04-23T04:55:36;95536.78;;;12.34;72.86
44751;BME280;30477;48.224;11.470;2023-04-23T04:58:01;95537.56;;;12.34;73.12
44751;BME280;30477;48.224;11.470;2023-04-23T05:00:28;95543.41;;;12.36;73.29
44751;BME280;30477;48.224;11.470;2023-04-23T05:02:54;95539.72;;;12.31;73.05
44751;BME280;30477;48.224;11.470;2023-04-23T05:05:21;95540.00;;;12.11;73.62
44751;BME280;30477;48.224;11.470;2023-04-23T05:07:47;95544.59;;;12.01;73.88
44751;BME280;30477;48.224;11.470;2023-04-23T05:10:13;95546.03;;;11.95;74.50
44751;BME280;30477;48.224;11.470;2023-04-23T05:12:39;95543.59;;;12.02;74.55
44751;BME280;30477;48.224;11.470;2023-04-23T05:15:09;95552.66;;;11.98;75.02
44751;BME280;30477;48.224;11.470;2023-04-23T05:17:37;95555.41;;;11.96;74.99
44751;BME280;30477;48.224;11.470;2023-04-23T05:20:03;95563.22;;;12.05;75.44
44751;BME280;30477;48.224;11.470;2023-04-23T05:22:29;95564.34;;;12.10;75.83
44751;BME280;30477;48.224;11.470;2023-04-23T05:24:54;95566.28;;;12.08;75.23
44751;BME280;30477;48.224;11.470;2023-04-23T05:27:20;95573.09;;;12.26;75.81
44751;BME280;30477;48.224;11.470;2023-04-23T05:29:45;95577.50;;;12.42;75.32
44751;BME280;30477;48.224;11.470;2023-04-23T05:32:11;95581.22;;;12.31;74.94
44751;BME280;30477;48.224;11.470;2023-04-23T05:34:37;95586.06;;;12.26;74.78
44751;BME280;30477;48.224;11.470;2023-04-23T05:37:02;95582.66;;;12.17;75.10
44751;BME280;30477;48.224;11.470;2023-04-23T05:39:27;95584.97;;;12.20;75.31
44751;BME280;30477;48.224;11.470;2023-04-23T05:41:53;95586.91;;;12.10;75.23
44751;BME280;30477;48.224;11.470;2023-04-23T05:44:18;95585.09;;;12.10;75.68
44751;BME280;30477;48.224;11.470;2023-04-23T05:46:43;95587.22;;;12.31;75.78
44751;BME280;30477;48.224;11.470;2023-04-23T05:49:09;95591.91;;;12.19;75.66
44751;BME280;30477;48.224;11.470;2023-04-23T05:51:34;95589.16;;;12.13;75.66
44751;BME280;30477;48.224;11.470;2023-04-23T05:54:00;95582.16;;;12.05;75.87
44751;BME280;30477;48.224;11.470;2023-04-23T05:56:25;95581.50;;;12.03;75.97
44751;BME280;30477;48.224;11.470;2023-04-23T05:58:50;95576.66;;;11.92;76.05
44751;BME280;30477;48.224;11.470;2023-04-23T06:01:16;95586.69;;;11.87;76.54
44751;BME280;30477;48.224;11.470;2023-04-23T06:03:42;95584.72;;;11.81;76.91
44751;BME280;30477;48.224;11.470;2023-04-23T06:06:10;95579.84;;;11.86;77.41
44751;BME280;30477;48.224;11.470;2023-04-23T06:08:37;95584.44;;;11.92;77.31
44751;BME280;30477;48.224;11.470;2023-04-23T06:11:03;95588.03;;;11.99;77.60
44751;BME280;30477;48.224;11.470;2023-04-23T06:13:28;95581.47;;;11.87;77.44
44751;BME280;30477;48.224;11.470;2023-04-23T06:15:55;95589.22;;;11.70;77.45
44751;BME280;30477;48.224;11.470;2023-04-23T06:18:20;95590.84;;;11.71;77.99
44751;BME280;30477;48.224;11.470;2023-04-23T06:20:45;95584.38;;;11.84;78.09
44751;BME280;30477;48.224;11.470;2023-04-23T06:23:12;95582.28;;;11.79;78.33
44751;BME280;30477;48.224;11.470;2023-04-23T06:25:38;95591.91;;;11.95;78.94
44751;BME280;30477;48.224;11.470;2023-04-23T06:28:03;95586.91;;;12.10;78.76
44751;BME280;30477;48.224;11.470;2023-04-23T06:30:28;95591.25;;;12.17;78.80
44751;BME280;30477;48.224;11.470;2023-04-23T06:32:54;95588.19;;;12.14;78.24
44751;BME280;30477;48.224;11.470;2023-04-23T06:35:19;95587.34;;;12.05;78.14
44751;BME280;30477;48.224;11.470;2023-04-23T06:37:45;95598.38;;;12.15;78.69
44751;BME280;30477;48.224;11.470;2023-04-23T06:40:10;95600.34;;;12.30;78.57
44751;BME280;30477;48.224;11.470;2023-04-23T06:42:36;95596.47;;;12.34;78.21
44751;BME280;30477;48.224;11.470;2023-04-23T06:45:01;95589.00;;;12.31;78.27
44751;BME280;30477;48.224;11.470;2023-04-23T06:47:28;95595.50;;;12.35;78.29
44751;BME280;30477;48.224;11.470;2023-04-23T06:49:54;95595.31;;;12.36;78.01
44751;BME280;30477;48.224;11.470;2023-04-23T06:52:19;95601.66;;;12.42;78.07
44751;BME280;30477;48.224;11.470;2023-04-23T06:54:45;95594.34;;;12.37;77.71
44751;BME280;30477;48.224;11.470;2023-04-23T06:57:10;95585.13;;;12.43;77.63
44751;BME280;30477;48.224;11.470;2023-04-23T06:59:35;95578.44;;;12.49;77.87
44751;BME280;30477;48.224;11.470;2023-04-23T07:02:01;95572.78;;;12.45;77.74
44751;BME280;30477;48.224;11.470;2023-04-23T07:04:26;95579.59;;;12.46;77.82
44751;BME280;30477;48.224;11.470;2023-04-23T07:06:52;95580.56;;;12.45;77.99
44751;BME280;30477;48.224;11.470;2023-04-23T07:09:17;95587.38;;;12.46;77.70
44751;BME280;30477;48.224;11.470;2023-04-23T07:11:42;95586.56;;;12.54;77.73
44751;BME280;30477;48.224;11.470;2023-04-23T07:14:08;95574.06;;;12.49;77.54
44751;BME280;30477;48.224;11.470;2023-04-23T07:16:33;95574.88;;;12.50;77.55
44751;BME280;30477;48.224;11.470;2023-04-23T07:18:59;95574.56;;;12.36;77.35
44751;BME280;30477;48.224;11.470;2023-04-23T07:21:27;95572.94;;;12.35;77.83
44751;BME280;30477;48.224;11.470;2023-04-23T07:23:55;95571.50;;;12.41;77.74
44751;BME280;30477;48.224;11.470;2023-04-23T07:26:20;95575.69;;;12.42;78.10
44751;BME280;30477;48.224;11.470;2023-04-23T07:28:46;95577.31;;;12.51;78.12
44751;BME280;30477;48.224;11.470;2023-04-23T07:31:12;95574.53;;;12.53;77.77
44751;BME280;30477;48.224;11.470;2023-04-23T07:33:38;95577.97;;;12.45;77.97
44751;BME280;30477;48.224;11.470;2023-04-23T07:36:04;95578.94;;;12.52;78.04
44751;BME280;30477;48.224;11.470;2023-04-23T07:38:29;95577.94;;;12.62;77.82
44751;BME280;30477;48.224;11.470;2023-04-23T07:40:54;95581.38;;;12.62;77.76
44751;BME280;30477;48.224;11.470;2023-04-23T07:43:21;95576.63;;;12.66;77.50
44751;BME280;30477;48.224;11.470;2023-04-23T07:45:47;95578.13;;;12.68;77.11
44751;BME280;30477;48.224;11.470;2023-04-23T07:48:12;95586.38;;;12.64;77.26
44751;BME280;30477;48.224;11.470;2023-04-23T07:50:37;95580.88;;;12.67;77.05
44751;BME280;30477;48.224;11.470;2023-04-23T07:53:03;95575.03;;;12.65;77.04
44751;BME280;30477;48.224;11.470;2023-04-23T07:55:28;95583.63;;;12.65;77.02
44751;BME280;30477;48.224;11.470;2023-04-23T07:57:53;95583.47;;;12.67;76.87
44751;BME280;30477;48.224;11.470;2023-04-23T08:00:19;95588.00;;;12.65;76.86
44751;BME280;30477;48.224;11.470;2023-04-23T08:02:45;95580.22;;;12.65;76.66
44751;BME280;30477;48.224;11.470;2023-04-23T08:05:10;95579.56;;;12.63;76.45
44751;BME280;30477;48.224;11.470;2023-04-23T08:07:36;95579.59;;;12.54;76.94
44751;BME280;30477;48.224;11.470;2023-04-23T08:10:01;95581.84;;;12.66;76.61
44751;BME280;30477;48.224;11.470;2023-04-23T08:12:30;95583.47;;;12.58;76.55
44751;BME280;30477;48.224;11.470;2023-04-23T08:14:58;95587.03;;;12.66;76.83
44751;BME280;30477;48.224;11.470;2023-04-23T08:17:24;95581.19;;;12.72;76.82
44751;BME280;30477;48.224;11.470;2023-04-23T08:19:49;95580.66;;;12.76;76.29
44751;BME280;30477;48.224;11.470;2023-04-23T08:22:14;95578.56;;;12.72;76.43
44751;BME280;30477;48.224;11.470;2023-04-23T08:24:42;95570.94;;;12.70;76.66
44751;BME280;30477;48.224;11.470;2023-04-23T08:27:08;95563.34;;;12.69;76.11
44751;BME280;30477;48.224;11.470;2023-04-23T08:29:33;95560.09;;;12.75;76.65
44751;BME280;30477;48.224;11.470;2023-04-23T08:31:59;95554.53;;;12.78;76.21
44751;BME280;30477;48.224;11.470;2023-04-23T08:34:24;95550.34;;;12.77;76.54
44751;BME280;30477;48.224;11.470;2023-04-23T08:36:50;95545.47;;;12.74;76.37
44751;BME280;30477;48.224;11.470;2023-04-23T08:39:15;95548.41;;;12.79;76.14
44751;BME280;30477;48.224;11.470;2023-04-23T08:41:41;95547.53;;;12.87;76.24
44751;BME280;30477;48.224;11.470;2023-04-23T08:44:17;95552.84;;;13.02;76.43
44751;BME280;30477;48.224;11.470;2023-04-23T08:46:43;95554.47;;;13.11;76.17
44751;BME280;30477;48.224;11.470;2023-04-23T08:49:13;95553.78;;;13.17;75.87
44751;BME280;30477;48.224;11.470;2023-04-23T08:51:49;95560.56;;;13.26;75.63
44751;BME280;30477;48.224;11.470;2023-04-23T08:54:20;95561.19;;;13.36;75.48
44751;BME280;30477;48.224;11.470;2023-04-23T08:56:47;95553.13;;;13.31;75.37
44751;BME280;30477;48.224;11.470;2023-04-23T08:59:14;95557.59;;;13.37;75.38
44751;BME280;30477;48.224;11.470;2023-04-23T09:01:40;95548.38;;;13.35;75.09
44751;BME280;30477;48.224;11.470;2023-04-23T09:04:06;95541.03;;;13.38;74.77
44751;BME280;30477;48.224;11.470;2023-04-23T09:06:33;95541.00;;;13.47;74.97
44751;BME280;30477;48.224;11.470;2023-04-23T09:08:58;95535.38;;;13.66;75.22
44751;BME280;30477;48.224;11.470;2023-04-23T09:11:25;95532.84;;;13.81;74.80
44751;BME280;30477;48.224;11.470;2023-04-23T09:13:51;95532.94;;;13.88;73.80
44751;BME280;30477;48.224;11.470;2023-04-23T09:16:16;95528.78;;;13.78;73.77
44751;BME280;30477;48.224;11.470;2023-04-23T09:18:42;95528.94;;;14.23;74.42
44751;BME280;30477;48.224;11.470;2023-04-23T09:21:08;95523.59;;;14.54;73.73
44751;BME280;30477;48.224;11.470;2023-04-23T09:23:37;95526.00;;;14.79;72.63
44751;BME280;30477;48.224;11.470;2023-04-23T09:26:05;95525.13;;;14.87;72.28
44751;BME280;30477;48.224;11.470;2023-04-23T09:28:34;95525.28;;;15.00;71.29
44751;BME280;30477;48.224;11.470;2023-04-23T09:31:00;95519.78;;;15.10;70.23
44751;BME280;30477;48.224;11.470;2023-04-23T09:33:28;95523.91;;;15.19;69.82
44751;BME280;30477;48.224;11.470;2023-04-23T09:35:53;95527.25;;;15.13;69.48
44751;BME280;30477;48.224;11.470;2023-04-23T09:38:19;95513.69;;;15.02;69.36
44751;BME280;30477;48.224;11.470;2023-04-23T09:40:44;95512.88;;;15.02;68.49
44751;BME280;30477;48.224;11.470;2023-04-23T09:43:10;95511.34;;;15.08;69.29
44751;BME280;30477;48.224;11.470;2023-04-23T09:45:35;95507.91;;;15.22;68.69
44751;BME280;30477;48.224;11.470;2023-04-23T09:48:01;95503.75;;;15.28;68.10
44751;BME280;30477;48.224;11.470;2023-04-23T09:50:37;95501.91;;;15.07;67.02
44751;BME280;30477;48.224;11.470;2023-04-23T09:53:04;95507.13;;;15.07;67.65
44751;BME280;30477;48.224;11.470;2023-04-23T09:55:37;95504.13;;;15.25;67.13
44751;BME280;30477;48.224;11.470;2023-04-23T09:58:23;95494.78;;;15.15;67.02
44751;BME280;30477;48.224;11.470;2023-04-23T10:00:49;95494.00;;;15.15;66.29
44751;BME280;30477;48.224;11.470;2023-04-23T10:03:14;95487.88;;;15.22;65.95
44751;BME280;30477;48.224;11.470;2023-04-23T10:05:41;95485.28;;;15.22;65.40
44751;BME280;30477;48.224;11.470;2023-04-23T10:08:07;95486.22;;;15.36;65.29
44751;BME280;30477;48.224;11.470;2023-04-23T10:10:33;95481.16;;;15.50;64.82
44751;BME280;30477;48.224;11.470;2023-04-23T10:12:59;95479.59;;;15.55;64.62
44751;BME280;30477;48.224;11.470;2023-04-23T10:15:25;95472.97;;;15.74;64.22
44751;BME280;30477;48.224;11.470;2023-04-23T10:17:51;95475.91;;;15.86;64.08
44751;BME280;30477;48.224;11.470;2023-04-23T10:20:16;95473.75;;;16.18;64.16
44751;BME280;30477;48.224;11.470;2023-04-23T10:22:43;95478.78;;;16.19;63.62
44751;BME280;30477;48.224;11.470;2023-04-23T10:25:11;95475.69;;;16.09;63.48
44751;BME280;30477;48.224;11.470;2023-04-23T10:27:38;95475.09;;;15.86;61.72
44751;BME280;30477;48.224;11.470;2023-04-23T10:30:05;95472.22;;;15.80;61.99
44751;BME280;30477;48.224;11.470;2023-04-23T10:32:32;95470.25;;;15.82;62.39
44751;BME280;30477;48.224;11.470;2023-04-23T10:34:59;95470.38;;;15.96;62.26
44751;BME280;30477;48.224;11.470;2023-04-23T10:37:27;95471.97;;;15.97;62.10
44751;BME280;30477;48.224;11.470;2023-04-23T10:40:02;95469.38;;;15.75;61.87
44751;BME280;30477;48.224;11.470;2023-04-23T10:42:28;95459.16;;;15.59;62.18
44751;BME280;30477;48.224;11.470;2023-04-23T10:44:57;95462.91;;;15.71;62.81
44751;BME280;30477;48.224;11.470;2023-04-23T10:47:24;95453.72;;;15.97;63.06
44751;BME280;30477;48.224;11.470;2023-04-23T10:49:49;95449.53;;;16.02;61.98
44751;BME280;30477;48.224;11.470;2023-04-23T10:52:16;95460.94;;;15.73;61.67
44751;BME280;30477;48.224;11.470;2023-04-23T10:54:46;95456.66;;;15.51;61.76
44751;BME280;30477;48.224;11.470;2023-04-23T10:57:12;95450.41;;;15.67;62.12
44751;BME280;30477;48.224;11.470;2023-04-23T10:59:39;95448.66;;;15.52;61.92
44751;BME280;30477;48.224;11.470;2023-04-23T11:02:09;95437.72;;;15.42;61.99
44751;BME280;30477;48.224;11.470;2023-04-23T11:04:40;95433.84;;;15.74;62.61
44751;BME280;30477;48.224;11.470;2023-04-23T11:07:10;95431.22;;;15.96;62.87
44751;BME280;30477;48.224;11.470;2023-04-23T11:09:40;95422.34;;;15.90;62.71
44751;BME280;30477;48.224;11.470;2023-04-23T11:12:11;95422.34;;;16.18;63.72
44751;BME280;30477;48.224;11.470;2023-04-23T11:14:47;95423.19;;;16.26;63.16
44751;BME280;30477;48.224;11.470;2023-04-23T11:17:14;95408.25;;;16.48;63.76
44751;BME280;30477;48.224;11.470;2023-04-23T11:19:41;95416.13;;;16.54;63.04
44751;BME280;30477;48.224;11.470;2023-04-23T11:22:12;95415.91;;;16.21;61.03
44751;BME280;30477;48.224;11.470;2023-04-23T11:24:40;95406.91;;;15.95;60.84
44751;BME280;30477;48.224;11.470;2023-04-23T11:27:09;95402.78;;;15.79;60.71
44751;BME280;30477;48.224;11.470;2023-04-23T11:29:39;95405.31;;;15.94;60.85
44751;BME280;30477;48.224;11.470;2023-04-23T11:32:05;95394.38;;;15.84;60.36
44751;BME280;30477;48.224;11.470;2023-04-23T11:34:42;95404.50;;;15.94;60.17
44751;BME280;30477;48.224;11.470;2023-04-23T11:37:12;95397.97;;;16.05;60.48
44751;BME280;30477;48.224;11.470;2023-04-23T11:39:43;95397.13;;;16.04;60.07
44751;BME280;30477;48.224;11.470;2023-04-23T11:42:10;95395.06;;;15.93;59.77
44751;BME280;30477;48.224;11.470;2023-04-23T11:44:37;95386.06;;;16.02;59.68
44751;BME280;30477;48.224;11.470;2023-04-23T11:47:06;95375.19;;;16.27;59.23
44751;BME280;30477;48.224;11.470;2023-04-23T11:49:32;95376.50;;;16.09;59.02
44751;BME280;30477;48.224;11.470;2023-04-23T11:51:58;95370.25;;;16.10;60.04
44751;BME280;30477;48.224;11.470;2023-04-23T11:54:26;95363.81;;;16.41;60.40
44751;BME280;30477;48.224;11.470;2023-04-23T11:56:52;95359.16;;;16.30;59.32
44751;BME280;30477;48.224;11.470;2023-04-23T11:59:20;95347.66;;;16.24;58.71
44751;BME280;30477;48.224;11.470;2023-04-23T12:01:47;95342.00;;;16.20;58.99
44751;BME280;30477;48.224;11.470;2023-04-23T12:04:23;95344.47;;;16.29;58.69
44751;BME280;30477;48.224;11.470;2023-04-23T12:06:50;95331.09;;;16.10;58.77
44751;BME280;30477;48.224;11.470;2023-04-23T12:09:17;95335.66;;;16.30;59.32
44751;BME280;30477;48.224;11.470;2023-04-23T12:11:44;95330.50;;;16.50;60.24
44751;BME280;30477;48.224;11.470;2023-04-23T12:14:10;95334.06;;;16.42;58.83
44751;BME280;30477;48.224;11.470;2023-04-23T12:16:41;95338.88;;;16.32;58.58
44751;BME280;30477;48.224;11.470;2023-04-23T12:19:28;95330.00;;;16.26;59.46
44751;BME280;30477;48.224;11.470;2023-04-23T12:21:54;95333.28;;;16.41;59.62
44751;BME280;30477;48.224;11.470;2023-04-23T12:24:25;95318.41;;;16.42;59.56
44751;BME280;30477;48.224;11.470;2023-04-23T12:26:56;95318.06;;;16.58;59.07
44751;BME280;30477;48.224;11.470;2023-04-23T12:29:23;95324.13;;;16.66;58.93
44751;BME280;30477;48.224;11.470;2023-04-23T12:31:51;95311.63;;;16.54;59.38
44751;BME280;30477;48.224;11.470;2023-04-23T12:34:17;95308.06;;;16.69;59.13
44751;BME280;30477;48.224;11.470;2023-04-23T12:36:49;95299.41;;;16.68;58.45
44751;BME280;30477;48.224;11.470;2023-04-23T12:39:31;95294.81;;;16.77;57.92
44751;BME280;30477;48.224;11.470;2023-04-23T12:42:06;95295.69;;;16.84;57.93
44751;BME280;30477;48.224;11.470;2023-04-23T12:44:35;95286.38;;;16.75;56.46
44751;BME280;30477;48.224;11.470;2023-04-23T12:47:02;95286.41;;;16.88;57.34